Jenks, OK (74037)

12:58 PM CST on February 09, 2016 (GMT -0600)
Fox Run | | Change Station
CLOSE
Current Station
Personal Weather Station
Location: Jenks, OK
Elevation: 692 ft
Nearby Weather Stations

Elev 692 ft 36.00 °N, 95.97 °W | Updated 8 seconds ago

Clear
Clear
49.6 °F
Feels Like 49 °F
N
3.4
Wind Variable Wind from WNW
Gusts 4.9 mph

Today
High -- | Low -- °F
--% Chance of Precip.
Yesterday
High -- | Low -- °F
Precip. -- in
Pressure 30.25 in
Visibility 10.0 miles
Clouds Clear
Windchill 49 °F
Dew Point 16 °F
Humidity 26%
Rainfall 0.00 in
Snow Depth Not available.
7:17 AM 5:58 PM
New Moon, 2% visible
METAR KRVS 091853Z 32009G21KT 10SM CLR 08/M08 A3023 RMK AO2 PK WND 32027/1841 SLP244 T00831083
Pressure 30.25 in
Visibility 10.0 miles
Clouds Clear
Windchill 49 °F
Dew Point 16 °F
Humidity 26%
Rainfall 0.00 in
Snow Depth Not available.
7:17 AM 5:58 PM
New Moon, 2% visible
METAR KRVS 091853Z 32009G21KT 10SM CLR 08/M08 A3023 RMK AO2 PK WND 32027/1841 SLP244 T00831083

10-Day Weather Forecast

Almanac

Astronomy

Feb. 09, 2016 Rise Set
Actual Time
Civil Twilight
Nautical Twilight
Astronomical Twilight
Moon
Length of Visible Light
Length of Day
Tomorrow will be .
, % of the Moon is Illuminated

Today's Extremes

State Highs State Lows

Community

WunderPhotos

Upload Photos

1,891,660 photos uploaded!

WunderBlog® & News

Nearby

Air Quality

  Air Quality AQ Index Pollutant
Not available.

Snow Depth

Station Depth Elevation

Earthquake Activity

City Distance Mag. Time & Date
Minimum magnitude displayed is 2.5.

Coastal Water Temperatures

Place Temperature

Stations

Nearby Weather Stations

Station Location Temp. Windchill Dew Point Humidity Wind Precip. Elev Updated Type
                   

Watches & Warnings

There are currently no watches in effect.